createdAt,value
2018-01-04T00:00:45.067Z,82.5
2018-01-04T00:01:48.370Z,82.5
2018-01-04T00:02:52.743Z,82.4
2018-01-04T00:03:57.344Z,82.4
2018-01-04T00:05:01.552Z,82.1
2018-01-04T00:06:05.480Z,81.7
2018-01-04T00:07:08.962Z,81.1
2018-01-04T00:08:13.031Z,80.7
2018-01-04T00:09:20.680Z,80.8
2018-01-04T00:10:25.542Z,81
2018-01-04T00:11:34.665Z,80.7
2018-01-04T00:12:38.782Z,80.3
2018-01-04T00:13:47.736Z,80.2
2018-01-04T00:14:50.954Z,80.1
2018-01-04T00:15:55.767Z,79.9
2018-01-04T00:16:59.643Z,79.9
2018-01-04T00:18:04.565Z,80.4
2018-01-04T00:19:07.905Z,80.3
2018-01-04T00:20:15.519Z,79.2
2018-01-04T00:21:18.888Z,79
2018-01-04T00:22:22.225Z,79.2
2018-01-04T00:23:25.745Z,79.3
2018-01-04T00:24:29.665Z,79.5
2018-01-04T00:25:32.994Z,79.1
2018-01-04T00:26:36.509Z,79.2
2018-01-04T00:27:45.488Z,79.3
2018-01-04T00:28:49.634Z,79.3
2018-01-04T00:29:58.564Z,79.1
2018-01-04T00:31:04.443Z,78.8
2018-01-04T00:32:07.724Z,78.8
2018-01-04T00:33:11.188Z,78.6
2018-01-04T00:34:14.670Z,78.4
2018-01-04T00:35:18.762Z,78
2018-01-04T00:36:22.176Z,77.8
2018-01-04T00:37:25.596Z,77.6
2018-01-04T00:38:29.568Z,78.4
2018-01-04T00:39:33.375Z,77.6
2018-01-04T00:40:37.473Z,76.9
2018-01-04T00:41:52.547Z,77
2018-01-04T00:43:01.495Z,76
2018-01-04T00:44:04.880Z,76.2
2018-01-04T00:45:09.625Z,76.2
2018-01-04T00:46:13.650Z,75.5
2018-01-04T00:47:16.966Z,75.8
2018-01-04T00:49:30.376Z,75.6
2018-01-04T00:50:35.034Z,75.6
2018-01-04T00:51:38.380Z,75.9
2018-01-04T00:52:46.019Z,76.2
2018-01-04T00:53:50.167Z,76.3
2018-01-04T00:54:53.497Z,75.8
2018-01-04T00:55:58.176Z,76.2
2018-01-04T00:57:02.518Z,76.2
2018-01-04T00:58:07.001Z,75.7
2018-01-04T00:59:10.412Z,75.7
2018-01-04T01:00:13.840Z,76
2018-01-04T01:01:17.312Z,75.9
2018-01-04T01:02:20.687Z,75.9
2018-01-04T01:03:29.684Z,75.8
2018-01-04T01:04:33.738Z,76.3
2018-01-04T01:05:39.202Z,76.4
2018-01-04T01:06:42.618Z,76.2
2018-01-04T01:07:45.931Z,76.3
2018-01-04T01:08:49.207Z,76
2018-01-04T01:09:52.722Z,75.8
2018-01-04T01:10:56.850Z,76.2
2018-01-04T01:12:01.250Z,76.1
2018-01-04T01:13:04.542Z,75.8
2018-01-04T01:14:11.365Z,76.3
2018-01-04T01:15:16.424Z,75.7
2018-01-04T01:16:21.461Z,75.7
2018-01-04T01:17:25.497Z,75.9
2018-01-04T01:18:29.635Z,76.1
2018-01-04T01:19:34.605Z,76
2018-01-04T01:20:37.825Z,76.5
2018-01-04T01:21:41.194Z,76.7
2018-01-04T01:22:45.575Z,76.8
2018-01-04T01:23:50.194Z,77.1
2018-01-04T01:24:57.008Z,77.5
2018-01-04T01:26:00.899Z,78
2018-01-04T01:27:04.260Z,78.3
2018-01-04T01:28:08.408Z,78.2
2018-01-04T01:29:11.630Z,78.8
2018-01-04T01:30:14.928Z,79.3
2018-01-04T01:31:18.271Z,79.1
2018-01-04T01:32:21.677Z,79.2
2018-01-04T01:33:24.982Z,79.3
2018-01-04T01:34:28.352Z,79.1
2018-01-04T01:35:35.288Z,79.6
2018-01-04T01:36:38.552Z,79.6
2018-01-04T01:37:41.969Z,79.7
2018-01-04T01:38:45.395Z,79.9
2018-01-04T01:39:48.912Z,80
2018-01-04T01:40:52.788Z,79.9
2018-01-04T01:41:56.300Z,80.6
2018-01-04T01:42:59.600Z,80
2018-01-04T01:44:06.764Z,80.2
2018-01-04T01:45:10.189Z,80.5
2018-01-04T01:46:17.025Z,80.5
2018-01-04T01:47:20.405Z,80.6
2018-01-04T01:48:25.015Z,80.7
2018-01-04T01:49:28.454Z,81.1
2018-01-04T01:50:43.006Z,80.9
2018-01-04T01:51:46.401Z,81
2018-01-04T01:52:55.442Z,81
2018-01-04T01:53:58.768Z,81
2018-01-04T01:55:08.503Z,81
2018-01-04T01:56:11.817Z,80.8
2018-01-04T01:57:19.366Z,81.2
2018-01-04T01:58:22.837Z,81.2
2018-01-04T01:59:26.168Z,81.5
2018-01-04T02:00:29.527Z,81
2018-01-04T02:01:33.064Z,80.9
2018-01-04T02:02:42.709Z,81
2018-01-04T02:03:46.045Z,81.2
2018-01-04T02:04:54.976Z,81.1
2018-01-04T02:06:10.015Z,81.1
2018-01-04T02:07:15.014Z,81.2
2018-01-04T02:08:22.370Z,81.4
2018-01-04T02:09:26.987Z,81.5
2018-01-04T02:10:30.328Z,80.9
2018-01-04T02:11:33.608Z,80.9
2018-01-04T02:12:36.970Z,80.7
2018-01-04T02:13:41.052Z,81
2018-01-04T02:14:44.556Z,80.9
2018-01-04T02:15:47.855Z,81
2018-01-04T02:16:52.127Z,81.2
2018-01-04T02:17:55.881Z,81.2
2018-01-04T02:19:02.830Z,80.9
2018-01-04T02:20:06.335Z,81
2018-01-04T02:21:11.355Z,81
2018-01-04T02:22:15.251Z,80.9
2018-01-04T02:23:18.461Z,80.7
2018-01-04T02:24:21.819Z,80.3
2018-01-04T02:25:26.582Z,80.2
2018-01-04T02:26:30.587Z,80.3
2018-01-04T02:27:33.778Z,79.9
2018-01-04T02:28:37.588Z,80.1
2018-01-04T02:29:45.178Z,80.2
2018-01-04T02:30:48.595Z,80.2
2018-01-04T02:31:52.003Z,80.3
2018-01-04T02:32:55.984Z,80.4
2018-01-04T02:33:59.344Z,80.4
2018-01-04T02:35:02.839Z,80.5
2018-01-04T02:36:07.281Z,80.4
2018-01-04T02:37:10.590Z,80.5
2018-01-04T02:38:13.822Z,80.8
2018-01-04T02:39:17.124Z,80.7
2018-01-04T02:40:24.649Z,81
2018-01-04T02:41:28.655Z,81
2018-01-04T02:42:32.007Z,81
2018-01-04T02:43:35.382Z,81
2018-01-04T02:44:49.291Z,80.8
2018-01-04T02:45:52.642Z,81
2018-01-04T02:46:57.351Z,80.9
2018-01-04T02:48:02.677Z,81.2
2018-01-04T02:49:05.885Z,81
2018-01-04T02:50:12.377Z,81
2018-01-04T02:51:19.203Z,80.9
2018-01-04T02:52:23.311Z,80.4
2018-01-04T02:53:26.705Z,80.4
2018-01-04T02:54:31.363Z,80.5
2018-01-04T02:55:35.332Z,80.3
2018-01-04T02:56:38.828Z,80.3
2018-01-04T02:57:42.286Z,80.3
2018-01-04T02:58:46.219Z,80.5
2018-01-04T02:59:50.186Z,80.5
2018-01-04T03:00:54.261Z,80.5
2018-01-04T03:02:07.482Z,80.3
2018-01-04T03:03:11.501Z,80.4
2018-01-04T03:04:20.318Z,80.4
2018-01-04T03:05:23.780Z,80.4
2018-01-04T03:06:28.599Z,80.4
2018-01-04T03:07:32.514Z,80.2
2018-01-04T03:08:36.064Z,80.4
2018-01-04T03:09:39.180Z,80.2
2018-01-04T03:10:53.604Z,80.3
2018-01-04T03:11:56.914Z,80.2
2018-01-04T03:13:04.203Z,80.4
2018-01-04T03:14:07.476Z,80.6
2018-01-04T03:15:10.842Z,80.7
2018-01-04T03:16:14.318Z,80.8
2018-01-04T03:17:19.216Z,80.6
2018-01-04T03:18:23.117Z,80.4
2018-01-04T03:19:26.353Z,80.6
2018-01-04T03:20:30.231Z,80.6
2018-01-04T03:21:33.556Z,80.8
2018-01-04T03:22:36.889Z,80.8
2018-01-04T03:23:43.829Z,80.7
2018-01-04T03:24:47.172Z,81.1
2018-01-04T03:25:50.462Z,81
2018-01-04T03:26:53.745Z,81
2018-01-04T03:27:57.059Z,80.7
2018-01-04T03:29:00.547Z,80.8
2018-01-04T03:30:05.433Z,80.6
2018-01-04T03:31:09.664Z,80.7
2018-01-04T03:32:12.957Z,80.2
2018-01-04T03:33:16.443Z,80.1
2018-01-04T03:34:24.055Z,80.8
2018-01-04T03:35:28.264Z,80.7
2018-01-04T03:36:32.099Z,80.4
2018-01-04T03:37:35.958Z,80.3
2018-01-04T03:38:39.275Z,79.9
2018-01-04T03:39:42.749Z,80.1
2018-01-04T03:40:46.067Z,80
2018-01-04T03:41:49.420Z,80.3
2018-01-04T03:42:52.758Z,80.5
2018-01-04T03:43:56.171Z,81
2018-01-04T03:45:02.114Z,80.9
2018-01-04T03:46:05.512Z,81.5
2018-01-04T03:47:10.394Z,81.3
2018-01-04T03:48:14.400Z,81.4
2018-01-04T03:49:17.715Z,81.5
2018-01-04T03:50:21.015Z,81.7
2018-01-04T03:51:25.072Z,82
2018-01-04T03:52:28.491Z,82.2
2018-01-04T03:53:31.830Z,82.4
2018-01-04T03:54:35.086Z,82.7
2018-01-04T03:55:41.637Z,82.7
2018-01-04T03:56:45.075Z,82.7
2018-01-04T03:57:49.128Z,82.9
2018-01-04T03:58:52.633Z,83.2
2018-01-04T03:59:56.034Z,83.3
2018-01-04T04:00:59.426Z,83.3
2018-01-04T04:02:03.346Z,83.9
2018-01-04T04:03:06.775Z,83
2018-01-04T04:04:10.757Z,82.6
2018-01-04T04:05:14.138Z,82.5
2018-01-04T04:06:21.552Z,82.2
2018-01-04T04:07:25.321Z,82.5
2018-01-04T04:08:28.659Z,82.4
2018-01-04T04:09:31.936Z,82.4
2018-01-04T04:10:35.303Z,82.7
2018-01-04T04:11:38.797Z,82.5
2018-01-04T04:12:42.092Z,82.5
2018-01-04T04:13:45.487Z,82.3
2018-01-04T04:14:49.376Z,82.2
2018-01-04T04:15:52.650Z,82.2
2018-01-04T04:17:00.153Z,82.6
2018-01-04T04:18:04.298Z,82.7
2018-01-04T04:19:07.574Z,82.5
2018-01-04T04:20:10.934Z,82.5
2018-01-04T04:21:16.160Z,82.7
2018-01-04T04:22:19.490Z,82.9
2018-01-04T04:23:22.936Z,83.2
2018-01-04T04:24:26.910Z,83.1
2018-01-04T04:25:40.178Z,83
2018-01-04T04:26:43.685Z,82.2
2018-01-04T04:27:51.247Z,82.1
2018-01-04T04:28:54.503Z,82.4
2018-01-04T04:29:57.944Z,81.9
2018-01-04T04:31:01.344Z,81.9
2018-01-04T04:32:04.584Z,81.8
2018-01-04T04:33:08.078Z,81.9
2018-01-04T04:34:11.507Z,81.8
2018-01-04T04:35:14.797Z,82.1
2018-01-04T04:36:19.479Z,82.3
2018-01-04T04:37:23.319Z,82.7
2018-01-04T04:38:32.071Z,82.4
2018-01-04T04:39:35.862Z,82.8
2018-01-04T04:40:40.708Z,83
2018-01-04T04:41:44.067Z,83
2018-01-04T04:42:47.375Z,82.5
2018-01-04T04:43:50.654Z,82.7
2018-01-04T04:44:54.742Z,82.5
2018-01-04T04:46:00.082Z,82.5
2018-01-04T04:47:03.386Z,82.5
2018-01-04T04:48:06.765Z,82.2
2018-01-04T04:49:27.282Z,82.2
2018-01-04T04:50:37.329Z,82.1
2018-01-04T04:51:46.282Z,82.2
2018-01-04T04:52:56.941Z,82.6
2018-01-04T04:54:00.815Z,83
2018-01-04T04:55:04.135Z,82.9
2018-01-04T04:56:07.552Z,82.9
2018-01-04T04:57:10.853Z,83.2
2018-01-04T04:58:14.168Z,83.5
2018-01-04T04:59:17.508Z,83.4
2018-01-04T05:01:34.720Z,83.6
2018-01-04T05:02:40.028Z,83.8
2018-01-04T05:03:44.807Z,83.8
2018-01-04T05:04:48.149Z,83.8
2018-01-04T05:05:52.193Z,84
2018-01-04T05:06:58.344Z,84.2
2018-01-04T05:08:01.640Z,84.4
2018-01-04T05:09:06.424Z,84.6
2018-01-04T05:10:11.764Z,84.5
2018-01-04T05:11:18.568Z,84.6
2018-01-04T05:12:23.478Z,84.8
2018-01-04T05:13:26.813Z,84.7
2018-01-04T05:14:30.108Z,84.8
2018-01-04T05:15:33.409Z,85.3
2018-01-04T05:16:36.756Z,85.4
2018-01-04T05:17:40.013Z,85.7
2018-01-04T05:18:47.393Z,85.4
2018-01-04T05:19:50.748Z,85.6
2018-01-04T05:20:55.986Z,86.1
2018-01-04T05:22:04.368Z,86.2
2018-01-04T05:23:11.990Z,86.5
2018-01-04T05:24:16.734Z,86.6
2018-01-04T05:25:20.629Z,86.8
2018-01-04T05:26:24.705Z,87
2018-01-04T05:27:28.549Z,87.2
2018-01-04T05:28:31.967Z,87.1
2018-01-04T05:29:35.325Z,87.1
2018-01-04T05:30:38.673Z,87.2
2018-01-04T05:31:42.729Z,87.6
2018-01-04T05:32:51.034Z,87.7
2018-01-04T05:33:54.358Z,87.8
2018-01-04T05:34:58.340Z,87.8
2018-01-04T05:36:01.568Z,88
2018-01-04T05:37:05.446Z,88.2
2018-01-04T05:38:09.294Z,88.6
2018-01-04T05:39:18.178Z,88.8
2018-01-04T05:40:27.739Z,88.4
2018-01-04T05:41:43.166Z,88.2
2018-01-04T05:42:52.757Z,88
2018-01-04T05:44:00.790Z,88.1
2018-01-04T05:45:04.954Z,88.1
2018-01-04T05:46:08.164Z,88.3
2018-01-04T05:47:13.268Z,88.3
2018-01-04T05:48:16.495Z,88.6
2018-01-04T05:49:21.089Z,88.4
2018-01-04T05:50:24.445Z,88.6
2018-01-04T05:51:28.325Z,88.8
2018-01-04T05:52:32.705Z,88.9
2018-01-04T05:53:37.141Z,88.8
2018-01-04T05:54:44.788Z,88.7
2018-01-04T05:55:48.708Z,89.1
2018-01-04T05:56:54.047Z,89.6
2018-01-04T05:57:57.294Z,89.7
2018-01-04T05:59:01.198Z,89.5
2018-01-04T06:00:04.503Z,89.8
2018-01-04T06:01:08.738Z,89.7
2018-01-04T06:02:14.336Z,89.8
2018-01-04T06:03:18.334Z,90
2018-01-04T06:04:22.910Z,90
2018-01-04T06:05:30.450Z,90
2018-01-04T06:06:33.868Z,90
2018-01-04T06:07:37.893Z,90
2018-01-04T06:08:42.828Z,90
2018-01-04T06:09:46.292Z,90
2018-01-04T06:10:50.297Z,90.1
2018-01-04T06:11:55.750Z,90
2018-01-04T06:13:00.367Z,90.4
2018-01-04T06:14:06.423Z,90.2
2018-01-04T06:15:12.348Z,90.5
2018-01-04T06:16:20.838Z,90.8
2018-01-04T06:17:24.738Z,90.8
2018-01-04T06:18:30.625Z,90.8
2018-01-04T06:19:35.392Z,90.8
2018-01-04T06:20:40.678Z,91.1
2018-01-04T06:21:44.912Z,91.3
2018-01-04T06:22:48.947Z,91.1
2018-01-04T06:23:55.153Z,91
2018-01-04T06:24:59.166Z,91.1
2018-01-04T06:26:02.557Z,91.3
2018-01-04T06:27:09.622Z,91.3
2018-01-04T06:28:13.065Z,91.4
2018-01-04T06:29:16.363Z,91.4
2018-01-04T06:30:20.460Z,91.5
2018-01-04T06:31:29.478Z,91.4
2018-01-04T06:33:47.410Z,91.5
2018-01-04T06:34:51.316Z,91.5
2018-01-04T06:35:54.766Z,91.7
2018-01-04T06:36:58.194Z,91.6
2018-01-04T06:38:10.902Z,91.6
2018-01-04T06:40:34.349Z,91.8
2018-01-04T06:41:37.714Z,91.8
2018-01-04T06:42:41.225Z,91.8
2018-01-04T06:43:44.646Z,91.8
2018-01-04T06:44:50.005Z,91.7
2018-01-04T06:45:59.068Z,91.8
2018-01-04T06:47:02.399Z,91.8
2018-01-04T06:48:05.732Z,91.8
2018-01-04T06:49:13.666Z,91.8
2018-01-04T06:50:17.189Z,91.8
2018-01-04T06:51:20.635Z,91.6
2018-01-04T06:52:24.031Z,91.6
2018-01-04T06:53:27.438Z,91.5
2018-01-04T06:54:31.033Z,91.7
2018-01-04T06:55:35.002Z,91.5
2018-01-04T06:56:38.993Z,91.7
2018-01-04T06:57:42.440Z,91.7
2018-01-04T06:58:46.454Z,91.6
2018-01-04T06:59:53.869Z,91.6
2018-01-04T07:00:57.365Z,91.6
2018-01-04T07:02:00.818Z,91.4
2018-01-04T07:03:04.968Z,91.8
2018-01-04T07:04:10.570Z,91.6
2018-01-04T07:05:13.941Z,91.5
2018-01-04T07:06:17.861Z,91.6
2018-01-04T07:07:24.381Z,91.6
2018-01-04T07:08:28.261Z,91.7
2018-01-04T07:09:32.601Z,91.7
2018-01-04T07:10:39.901Z,91.7
2018-01-04T07:11:43.233Z,91.7
2018-01-04T07:12:46.487Z,91.8
2018-01-04T07:13:50.876Z,91.8
2018-01-04T07:14:54.244Z,91.7
2018-01-04T07:15:59.749Z,91.7
2018-01-04T07:17:04.741Z,91.7
2018-01-04T07:18:09.504Z,91.7
2018-01-04T07:19:13.985Z,91.7
2018-01-04T07:20:18.575Z,91.5
2018-01-04T07:21:28.418Z,91.5
2018-01-04T07:22:32.573Z,91.5
2018-01-04T07:23:36.926Z,91.6
2018-01-04T07:24:41.708Z,91.7
2018-01-04T07:25:47.095Z,91.7
2018-01-04T07:26:51.711Z,91.7
2018-01-04T07:27:57.330Z,91.7
2018-01-04T07:29:01.879Z,91.5
2018-01-04T07:30:06.417Z,91.5
2018-01-04T07:31:12.077Z,91.5
2018-01-04T07:32:21.936Z,91.5
2018-01-04T07:33:28.153Z,91.6
2018-01-04T07:34:32.904Z,91.5
2018-01-04T07:35:38.844Z,91.5
2018-01-04T07:36:42.348Z,91.4
2018-01-04T07:37:47.159Z,91.5
2018-01-04T07:38:52.007Z,91.5
2018-01-04T07:39:55.959Z,91.5
2018-01-04T07:41:00.889Z,91.4
2018-01-04T07:42:05.606Z,91.5
2018-01-04T07:43:16.156Z,91.6
2018-01-04T07:44:21.941Z,91.6
2018-01-04T07:45:26.200Z,91.5
2018-01-04T07:46:30.923Z,91.5
2018-01-04T07:47:36.721Z,91.6
2018-01-04T07:48:40.812Z,91.6
2018-01-04T07:49:47.692Z,91.7
2018-01-04T07:50:51.758Z,91.7
2018-01-04T07:51:56.533Z,91.6
2018-01-04T07:53:02.512Z,91.5
2018-01-04T07:54:10.977Z,91.4
2018-01-04T07:55:17.889Z,91.7
2018-01-04T07:56:21.290Z,91.6
2018-01-04T07:57:26.028Z,91.6
2018-01-04T07:58:31.943Z,91.6
2018-01-04T07:59:35.806Z,91.6
2018-01-04T08:00:40.105Z,91.5
2018-01-04T08:01:45.299Z,91.5
2018-01-04T08:02:50.908Z,91.6
2018-01-04T08:03:55.309Z,91.6
2018-01-04T08:05:02.119Z,91.6
2018-01-04T08:06:06.769Z,91.6
2018-01-04T08:07:13.663Z,91.5
2018-01-04T08:08:17.690Z,91.6
2018-01-04T08:09:22.394Z,91.5
2018-01-04T08:10:27.452Z,91.6
2018-01-04T08:11:32.462Z,91.5
2018-01-04T08:12:37.329Z,91.6
2018-01-04T08:13:41.902Z,91.6
2018-01-04T08:14:46.952Z,91.5
2018-01-04T08:15:55.466Z,91.5
2018-01-04T08:17:01.938Z,91.5
2018-01-04T08:18:05.944Z,91.5
2018-01-04T08:19:11.676Z,91.5
2018-01-04T08:20:16.154Z,91.4
2018-01-04T08:21:21.233Z,91.5
2018-01-04T08:22:27.545Z,91.5
2018-01-04T08:23:31.905Z,91.5
2018-01-04T08:24:36.894Z,91.6
2018-01-04T08:25:42.277Z,91.5
2018-01-04T08:26:50.323Z,91.5
2018-01-04T08:27:55.819Z,91.6
2018-01-04T08:29:01.360Z,91.6
2018-01-04T08:30:06.056Z,91.6
2018-01-04T08:31:12.973Z,91.6
2018-01-04T08:32:17.610Z,91.6
2018-01-04T08:33:22.189Z,91.6
2018-01-04T08:34:27.302Z,91.6
2018-01-04T08:35:32.888Z,91.6
2018-01-04T08:36:37.531Z,91.7
2018-01-04T08:37:44.649Z,91.6
2018-01-04T08:38:53.826Z,91.6
2018-01-04T08:39:59.393Z,91.7
2018-01-04T08:41:03.846Z,91.6
2018-01-04T08:42:08.873Z,91.8
2018-01-04T08:43:12.218Z,91.8
2018-01-04T08:44:18.160Z,91.7
2018-01-04T08:45:23.194Z,91.8
2018-01-04T08:46:29.475Z,92.1
2018-01-04T08:47:34.344Z,91.9
2018-01-04T08:48:43.749Z,91.9
2018-01-04T08:49:48.496Z,92
2018-01-04T08:50:54.377Z,92
2018-01-04T08:52:00.241Z,92.1
2018-01-04T08:53:05.237Z,92.1
2018-01-04T08:54:10.793Z,92.2
2018-01-04T08:55:17.159Z,92.2
2018-01-04T08:56:21.366Z,92.4
2018-01-04T08:57:25.941Z,92.5
2018-01-04T08:58:29.414Z,92.5
2018-01-04T08:59:36.901Z,92.5
2018-01-04T09:00:41.886Z,92.5
2018-01-04T09:01:45.278Z,92.5
2018-01-04T09:02:49.265Z,92.5
2018-01-04T09:03:52.762Z,92.5
2018-01-04T09:04:56.234Z,92.6
2018-01-04T09:05:59.816Z,92.5
2018-01-04T09:07:03.206Z,92.4
2018-01-04T09:08:06.660Z,92.5
2018-01-04T09:09:09.980Z,92.5
2018-01-04T09:10:16.742Z,92.6
2018-01-04T09:11:20.284Z,92.6
2018-01-04T09:12:23.711Z,92.6
2018-01-04T09:13:27.140Z,92.6
2018-01-04T09:14:30.946Z,92.6
2018-01-04T09:15:34.310Z,92.5
2018-01-04T09:16:37.798Z,92.5
2018-01-04T09:17:41.976Z,92.4
2018-01-04T09:18:45.969Z,92.4
2018-01-04T09:19:49.399Z,92.5
2018-01-04T09:20:56.984Z,92.6
2018-01-04T09:22:00.495Z,92.5
2018-01-04T09:23:03.922Z,92.6
2018-01-04T09:24:08.007Z,92.5
2018-01-04T09:25:12.351Z,92.6
2018-01-04T09:26:15.846Z,92.6
2018-01-04T09:27:19.465Z,92.6
2018-01-04T09:28:23.144Z,92.6
2018-01-04T09:29:26.600Z,92.6
2018-01-04T09:30:29.870Z,92.6
2018-01-04T09:31:38.753Z,92.5
2018-01-04T09:32:42.698Z,92.5
2018-01-04T09:33:46.769Z,92.6
2018-01-04T09:34:50.152Z,92.7
2018-01-04T09:35:53.380Z,92.7
2018-01-04T09:36:58.407Z,92.4
2018-01-04T09:38:02.652Z,92.6
2018-01-04T09:39:06.222Z,92.5
2018-01-04T09:40:10.171Z,92.5
2018-01-04T09:41:15.018Z,92.5
2018-01-04T09:42:24.187Z,92.5
2018-01-04T09:43:27.720Z,92.5
2018-01-04T09:44:31.848Z,92.5
2018-01-04T09:45:36.948Z,92.5
2018-01-04T09:46:41.740Z,92.6
2018-01-04T09:47:46.439Z,92.6
2018-01-04T09:48:51.035Z,92.5
2018-01-04T09:49:56.063Z,92.4
2018-01-04T09:51:00.080Z,92.6
2018-01-04T09:52:04.948Z,92.7
2018-01-04T09:53:15.086Z,92.7
2018-01-04T09:54:19.165Z,92.8
2018-01-04T09:55:24.310Z,92.8
2018-01-04T09:56:27.599Z,92.8
2018-01-04T09:57:33.339Z,92.7
2018-01-04T09:58:38.616Z,92.7
2018-01-04T09:59:45.031Z,92.7
2018-01-04T10:00:51.537Z,92.6
2018-01-04T10:01:58.590Z,92.7
2018-01-04T10:03:05.949Z,92.7
2018-01-04T10:04:15.958Z,92.6
2018-01-04T10:05:23.021Z,92.8
2018-01-04T10:06:30.594Z,92.7
2018-01-04T10:07:35.029Z,92.8
2018-01-04T10:08:42.139Z,92.9
2018-01-04T10:09:46.913Z,92.8
2018-01-04T10:10:52.334Z,92.9
2018-01-04T10:11:58.315Z,92.9
2018-01-04T10:13:03.350Z,92.9
2018-01-04T10:14:07.311Z,92.8
2018-01-04T10:15:14.490Z,92.7
2018-01-04T10:16:18.454Z,92.7
2018-01-04T10:17:23.821Z,92.8
2018-01-04T10:18:27.879Z,92.6
2018-01-04T10:19:31.594Z,92.6
2018-01-04T10:20:35.682Z,92.6
2018-01-04T10:21:40.295Z,92.8
2018-01-04T10:22:45.432Z,92.8
2018-01-04T10:23:50.083Z,92.9
2018-01-04T10:24:53.752Z,92.9
2018-01-04T10:26:01.705Z,92.9
2018-01-04T10:27:05.910Z,93
2018-01-04T10:28:09.455Z,93.1
2018-01-04T10:29:14.194Z,92.9
2018-01-04T10:30:17.716Z,92.8
2018-01-04T10:31:22.314Z,92.8
2018-01-04T10:32:26.788Z,92.9
2018-01-04T10:33:31.803Z,92.9
2018-01-04T10:34:36.154Z,92.8
2018-01-04T10:35:40.086Z,92.9
2018-01-04T10:36:49.343Z,92.8
2018-01-04T10:37:53.846Z,92.8
2018-01-04T10:38:58.780Z,92.8
2018-01-04T10:40:04.061Z,92.7
2018-01-04T10:41:09.578Z,92.6
2018-01-04T10:42:13.141Z,92.7
2018-01-04T10:43:18.357Z,92.7
2018-01-04T10:44:21.766Z,92.7
2018-01-04T10:45:27.062Z,92.8
2018-01-04T10:46:31.907Z,92.8
2018-01-04T10:47:40.038Z,92.9
2018-01-04T10:48:43.496Z,92.9
2018-01-04T10:49:47.541Z,93
2018-01-04T10:50:50.975Z,92.8
2018-01-04T10:51:54.902Z,92.8
2018-01-04T10:52:58.319Z,92.9
2018-01-04T10:54:03.187Z,92.9
2018-01-04T10:55:06.597Z,92.8
2018-01-04T10:56:10.095Z,92.8
2018-01-04T10:57:16.195Z,92.8
2018-01-04T10:58:22.300Z,92.8
2018-01-04T10:59:27.558Z,92.8
2018-01-04T11:00:31.519Z,92.9
2018-01-04T11:01:34.947Z,93
2018-01-04T11:02:39.090Z,92.9
2018-01-04T11:03:43.718Z,93
2018-01-04T11:04:48.250Z,93.1
2018-01-04T11:05:53.433Z,93.1
2018-01-04T11:06:56.956Z,93.5
2018-01-04T11:08:00.368Z,93.1
2018-01-04T11:09:08.034Z,93.2
2018-01-04T11:10:12.061Z,93.2
2018-01-04T11:11:16.840Z,93.3
2018-01-04T11:12:22.424Z,93.3
2018-01-04T11:13:25.894Z,93.4
2018-01-04T11:14:30.594Z,93.2
2018-01-04T11:15:34.359Z,93.4
2018-01-04T11:16:39.175Z,93.4
2018-01-04T11:17:42.602Z,93.4
2018-01-04T11:18:47.074Z,93.4
2018-01-04T11:19:56.100Z,93.4
2018-01-04T11:21:00.177Z,93.5
2018-01-04T11:22:04.269Z,93.4
2018-01-04T11:23:09.446Z,93.4
2018-01-04T11:24:14.668Z,93.2
2018-01-04T11:25:22.602Z,93.3
2018-01-04T11:26:27.516Z,93.4
2018-01-04T11:27:31.826Z,93.3
2018-01-04T11:28:35.348Z,93.3
2018-01-04T11:29:38.749Z,93.3
2018-01-04T11:30:45.465Z,93.3
2018-01-04T11:31:48.966Z,93.3
2018-01-04T11:32:52.359Z,93.3
2018-01-04T11:33:55.731Z,93.3
2018-01-04T11:34:59.316Z,93.3
2018-01-04T11:36:02.781Z,93.3
2018-01-04T11:37:06.090Z,93.3
2018-01-04T11:38:09.490Z,93.3
2018-01-04T11:39:12.797Z,93.2
2018-01-04T11:40:16.176Z,93.3
2018-01-04T11:41:22.312Z,93.4
2018-01-04T11:42:26.559Z,93.5
2018-01-04T11:43:30.050Z,93.4
2018-01-04T11:44:33.459Z,93.3
2018-01-04T11:45:36.925Z,93.5
2018-01-04T11:46:40.549Z,93.5
2018-01-04T11:47:44.090Z,93.3
2018-01-04T11:48:47.867Z,93.4
2018-01-04T11:49:51.264Z,93.3
2018-01-04T11:50:54.811Z,93.3
2018-01-04T11:52:01.874Z,93.4
2018-01-04T11:53:05.319Z,93.3
2018-01-04T11:54:08.591Z,93.5
2018-01-04T11:55:12.136Z,93.5
2018-01-04T11:56:15.599Z,93.4
2018-01-04T11:57:19.022Z,93.4
2018-01-04T11:58:22.610Z,93.4
2018-01-04T11:59:26.145Z,93.4
2018-01-04T12:00:29.688Z,93.5
2018-01-04T12:01:33.182Z,93.5
2018-01-04T12:02:39.104Z,93.4
2018-01-04T12:03:42.752Z,93.5
2018-01-04T12:04:47.925Z,93.5
2018-01-04T12:05:52.412Z,93.5
2018-01-04T12:06:55.799Z,93.5
2018-01-04T12:07:59.251Z,93.4
2018-01-04T12:09:03.358Z,93.5
2018-01-04T12:10:06.886Z,93.4
2018-01-04T12:11:10.927Z,93.5
2018-01-04T12:12:15.622Z,93.6
2018-01-04T12:13:24.072Z,93.5
2018-01-04T12:14:27.536Z,93.4
2018-01-04T12:15:30.826Z,93.4
2018-01-04T12:16:34.329Z,93.4
2018-01-04T12:17:37.767Z,93.3
2018-01-04T12:18:41.550Z,93.2
2018-01-04T12:19:49.074Z,93.4
2018-01-04T12:20:53.118Z,93.4
2018-01-04T12:21:56.780Z,93.3
2018-01-04T12:22:59.994Z,93.3
2018-01-04T12:24:06.849Z,93.2
2018-01-04T12:25:10.892Z,93.3
2018-01-04T12:26:14.902Z,93.3
2018-01-04T12:27:19.145Z,93.3
2018-01-04T12:28:22.502Z,93.2
2018-01-04T12:29:25.959Z,93.3
2018-01-04T12:30:29.994Z,93.3
2018-01-04T12:31:34.076Z,93.4
2018-01-04T12:32:39.805Z,93.4
2018-01-04T12:33:43.264Z,93.4
2018-01-04T12:34:51.107Z,93.4
2018-01-04T12:35:58.243Z,93.4
2018-01-04T12:37:03.021Z,93.4
2018-01-04T12:38:07.157Z,93.4
2018-01-04T12:39:10.687Z,93.3
2018-01-04T12:40:17.423Z,93.4
2018-01-04T12:41:22.283Z,93.3
2018-01-04T12:42:25.816Z,93.3
2018-01-04T12:43:29.957Z,93.4
2018-01-04T12:44:34.397Z,93.4
2018-01-04T12:45:45.831Z,93.8
2018-01-04T12:46:49.962Z,93.7
2018-01-04T12:47:53.441Z,93.7
2018-01-04T12:48:57.823Z,93.6
2018-01-04T12:50:02.323Z,93.4
2018-01-04T12:51:07.188Z,93.5
2018-01-04T12:52:11.043Z,93.5
2018-01-04T12:53:14.410Z,93.4
2018-01-04T12:54:19.260Z,93.3
2018-01-04T12:55:23.705Z,93.3
2018-01-04T12:56:33.234Z,93.2
2018-01-04T12:57:37.892Z,93.3
2018-01-04T12:58:43.079Z,93.4
2018-01-04T12:59:48.004Z,93.5
2018-01-04T13:00:51.616Z,93.6
2018-01-04T13:01:55.082Z,93.7
2018-01-04T13:03:00.505Z,93.8
2018-01-04T13:04:03.960Z,93.7
2018-01-04T13:05:07.313Z,93.7
2018-01-04T13:06:11.187Z,93.8
2018-01-04T13:07:18.569Z,93.8
2018-01-04T13:08:21.896Z,94
2018-01-04T13:09:25.287Z,93.9
2018-01-04T13:10:28.799Z,94
2018-01-04T13:11:33.744Z,94.1
2018-01-04T13:12:37.252Z,94.2
2018-01-04T13:13:40.605Z,94.3
2018-01-04T13:14:44.645Z,94.4
2018-01-04T13:15:47.988Z,94.5
2018-01-04T13:16:51.613Z,94.6
2018-01-04T13:18:00.128Z,94.6
2018-01-04T13:19:03.613Z,94.9
2018-01-04T13:20:06.977Z,94.9
2018-01-04T13:21:10.591Z,94.8
2018-01-04T13:22:15.489Z,94.9
2018-01-04T13:23:18.758Z,94.9
2018-01-04T13:24:22.328Z,94.9
2018-01-04T13:25:26.947Z,94.9
2018-01-04T13:26:31.072Z,95
2018-01-04T13:27:35.207Z,95
2018-01-04T13:28:43.112Z,94.8
2018-01-04T13:29:46.495Z,94.9
2018-01-04T13:30:49.840Z,94.9
2018-01-04T13:31:53.280Z,94.9
2018-01-04T13:32:57.329Z,94.9
2018-01-04T13:34:00.946Z,95
2018-01-04T13:35:04.428Z,95.2
2018-01-04T13:36:07.829Z,95.3
2018-01-04T13:37:11.329Z,95.4
2018-01-04T13:38:14.724Z,95.3
2018-01-04T13:39:21.795Z,95.3
2018-01-04T13:40:25.147Z,95.3
2018-01-04T13:41:28.490Z,95.2
2018-01-04T13:42:31.718Z,95.3
2018-01-04T13:43:35.042Z,95.2
2018-01-04T13:44:38.497Z,95.2
2018-01-04T13:45:41.938Z,95.2
2018-01-04T13:46:45.377Z,95.3
2018-01-04T13:47:48.850Z,95.3
2018-01-04T13:48:52.232Z,95.3
2018-01-04T13:49:59.206Z,95.3
2018-01-04T13:51:02.447Z,95.3
2018-01-04T13:52:05.776Z,95.3
2018-01-04T13:53:13.872Z,95.2
2018-01-04T13:54:21.978Z,95.1
2018-01-04T13:55:26.156Z,95.2
2018-01-04T13:56:30.506Z,95.3
2018-01-04T13:57:34.678Z,95.4
2018-01-04T13:58:38.123Z,95.5
2018-01-04T13:59:42.844Z,95.4
2018-01-04T14:00:50.615Z,95.4
2018-01-04T14:01:54.014Z,95.4
2018-01-04T14:02:57.532Z,95.4
2018-01-04T14:04:00.876Z,95.4
2018-01-04T14:05:04.327Z,95.5
2018-01-04T14:06:07.737Z,95.5
2018-01-04T14:07:10.869Z,95.7
2018-01-04T14:08:14.245Z,95.7
2018-01-04T14:09:17.542Z,95.6
2018-01-04T14:10:20.807Z,95.6
2018-01-04T14:11:27.764Z,95.7
2018-01-04T14:12:31.215Z,95.7
2018-01-04T14:13:34.666Z,95.7
2018-01-04T14:14:38.138Z,95.7
2018-01-04T14:15:42.294Z,95.8
2018-01-04T14:16:46.093Z,95.8
2018-01-04T14:17:49.642Z,95.8
2018-01-04T14:18:53.100Z,96.1
2018-01-04T14:19:57.806Z,95.8
2018-01-04T14:21:01.278Z,95.9
2018-01-04T14:22:08.370Z,95.9
2018-01-04T14:23:13.292Z,96
2018-01-04T14:24:16.748Z,95.8
2018-01-04T14:25:20.103Z,96
2018-01-04T14:26:24.185Z,96.1
2018-01-04T14:27:29.162Z,96.4
2018-01-04T14:28:32.469Z,96.4
2018-01-04T14:29:36.038Z,96.6
2018-01-04T14:30:39.486Z,96.5